createdAt,value
2019-02-17T00:00:19.225Z,16.00
2019-02-17T00:01:19.365Z,16.00
2019-02-17T00:02:19.203Z,16.00
2019-02-17T00:03:19.190Z,16.00
2019-02-17T00:04:19.182Z,16.00
2019-02-17T00:05:19.173Z,16.00
2019-02-17T00:06:19.159Z,16.00
2019-02-17T00:07:19.555Z,16.00
2019-02-17T00:08:19.142Z,16.00
2019-02-17T00:09:19.126Z,16.00
2019-02-17T00:10:19.114Z,16.00
2019-02-17T00:11:19.103Z,16.00
2019-02-17T00:12:19.107Z,16.00
2019-02-17T00:13:19.209Z,16.00
2019-02-17T00:14:19.349Z,16.00
2019-02-17T00:15:19.065Z,16.00
2019-02-17T00:16:19.159Z,16.00
2019-02-17T00:17:19.097Z,16.00
2019-02-17T00:18:19.031Z,16.00
2019-02-17T00:19:19.316Z,16.00
2019-02-17T00:20:19.010Z,16.00
2019-02-17T00:21:19.423Z,16.00
2019-02-17T00:22:18.992Z,20.00
2019-02-17T00:23:18.991Z,16.00
2019-02-17T00:24:18.971Z,16.00
2019-02-17T00:25:20.545Z,16.00
2019-02-17T00:26:18.970Z,16.00
2019-02-17T00:27:18.936Z,16.00
2019-02-17T00:28:19.234Z,16.00
2019-02-17T00:29:18.928Z,16.00
2019-02-17T00:30:18.906Z,16.00
2019-02-17T00:31:18.929Z,16.00
2019-02-17T00:32:18.881Z,16.00
2019-02-17T00:33:18.893Z,16.00
2019-02-17T00:34:18.860Z,16.00
2019-02-17T00:35:19.257Z,16.00
2019-02-17T00:36:18.841Z,16.00
2019-02-17T00:37:18.880Z,16.00
2019-02-17T00:38:18.819Z,16.00
2019-02-17T00:39:18.812Z,16.00
2019-02-17T00:40:18.801Z,16.00
2019-02-17T00:41:18.895Z,16.00
2019-02-17T00:42:18.797Z,16.00
2019-02-17T00:43:18.823Z,16.00
2019-02-17T00:44:18.759Z,16.00
2019-02-17T00:45:18.752Z,16.00
2019-02-17T00:46:18.734Z,16.00
2019-02-17T00:47:18.722Z,16.00
2019-02-17T00:48:18.998Z,16.00
2019-02-17T00:49:18.742Z,16.00
2019-02-17T00:50:18.694Z,16.00
2019-02-17T00:51:18.688Z,16.00
2019-02-17T00:52:18.672Z,16.00
2019-02-17T00:53:18.663Z,16.00
2019-02-17T00:54:18.669Z,16.00
2019-02-17T00:55:19.880Z,16.00
2019-02-17T00:56:18.630Z,16.00
2019-02-17T00:57:18.619Z,16.00
2019-02-17T00:58:18.611Z,16.00
2019-02-17T00:59:18.602Z,16.00
2019-02-17T01:00:18.589Z,16.00
2019-02-17T01:01:18.613Z,16.00
2019-02-17T01:02:18.857Z,16.00
2019-02-17T01:03:18.571Z,16.00
2019-02-17T01:04:18.583Z,16.00
2019-02-17T01:05:18.567Z,16.00
2019-02-17T01:06:18.539Z,16.00
2019-02-17T01:07:18.587Z,16.00
2019-02-17T01:08:18.530Z,16.00
2019-02-17T01:09:18.854Z,16.00
2019-02-17T01:10:18.515Z,16.00
2019-02-17T01:11:18.478Z,16.00
2019-02-17T01:12:18.464Z,16.00
2019-02-17T01:13:18.507Z,16.00
2019-02-17T01:14:18.461Z,16.00
2019-02-17T01:15:18.434Z,16.00
2019-02-17T01:16:18.714Z,16.00
2019-02-17T01:17:18.422Z,16.00
2019-02-17T01:18:18.399Z,16.00
2019-02-17T01:19:18.434Z,16.00
2019-02-17T01:20:18.390Z,16.00
2019-02-17T01:21:18.366Z,16.00
2019-02-17T01:22:18.357Z,16.00
2019-02-17T01:23:18.625Z,16.00
2019-02-17T01:24:18.340Z,16.00
2019-02-17T01:25:18.353Z,16.00
2019-02-17T01:26:18.341Z,16.00
2019-02-17T01:27:18.309Z,16.00
2019-02-17T01:28:18.296Z,16.00
2019-02-17T01:29:20.760Z,16.00
2019-02-17T01:30:18.565Z,16.00
2019-02-17T01:31:18.314Z,16.00
2019-02-17T01:32:18.250Z,16.00
2019-02-17T01:33:18.240Z,16.00
2019-02-17T01:34:18.231Z,16.00
2019-02-17T01:35:18.222Z,16.00
2019-02-17T01:36:18.215Z,16.00
2019-02-17T01:37:18.506Z,16.00
2019-02-17T01:38:18.205Z,16.00
2019-02-17T01:39:18.220Z,16.00
2019-02-17T01:40:18.167Z,16.00
2019-02-17T01:41:18.157Z,16.00
2019-02-17T01:42:18.148Z,16.00
2019-02-17T01:43:18.167Z,16.00
2019-02-17T01:44:18.419Z,16.00
2019-02-17T01:45:18.122Z,16.00
2019-02-17T01:46:18.104Z,16.00
2019-02-17T01:47:18.095Z,16.00
2019-02-17T01:48:18.084Z,16.00
2019-02-17T01:49:18.123Z,16.00
2019-02-17T01:50:18.065Z,16.00
2019-02-17T01:51:19.818Z,16.00
2019-02-17T01:52:18.052Z,16.00
2019-02-17T01:53:18.037Z,16.00
2019-02-17T01:54:18.031Z,16.00
2019-02-17T01:55:18.035Z,16.00
2019-02-17T01:56:17.999Z,16.00
2019-02-17T01:57:19.130Z,16.00
2019-02-17T01:58:17.988Z,16.00
2019-02-17T01:59:17.967Z,16.00
2019-02-17T02:00:17.957Z,16.00
2019-02-17T02:01:17.975Z,16.00
2019-02-17T02:02:17.936Z,16.00
2019-02-17T02:03:17.930Z,16.00
2019-02-17T02:04:18.199Z,16.00
2019-02-17T02:05:17.903Z,16.00
2019-02-17T02:06:17.923Z,16.00
2019-02-17T02:07:17.933Z,16.00
2019-02-17T02:08:17.871Z,16.00
2019-02-17T02:09:17.867Z,16.00
2019-02-17T02:10:17.860Z,16.00
2019-02-17T02:11:18.132Z,16.00
2019-02-17T02:12:17.834Z,16.00
2019-02-17T02:13:17.858Z,16.00
2019-02-17T02:14:17.815Z,16.00
2019-02-17T02:15:17.796Z,16.00
2019-02-17T02:16:17.799Z,16.00
2019-02-17T02:17:17.781Z,16.00
2019-02-17T02:18:18.812Z,16.00
2019-02-17T02:19:18.185Z,16.00
2019-02-17T02:20:17.745Z,16.00
2019-02-17T02:21:17.733Z,16.00
2019-02-17T02:22:17.725Z,16.00
2019-02-17T02:23:18.141Z,16.00
2019-02-17T02:24:17.706Z,16.00
2019-02-17T02:25:18.851Z,16.00
2019-02-17T02:26:17.681Z,16.00
2019-02-17T02:27:17.678Z,16.00
2019-02-17T02:28:17.662Z,16.00
2019-02-17T02:29:17.650Z,16.00
2019-02-17T02:30:17.641Z,16.00
2019-02-17T02:31:17.776Z,16.00
2019-02-17T02:32:17.918Z,16.00
2019-02-17T02:33:17.610Z,16.00
2019-02-17T02:34:17.600Z,16.00
2019-02-17T02:35:17.586Z,16.00
2019-02-17T02:36:18.142Z,16.00
2019-02-17T02:37:17.785Z,16.00
2019-02-17T02:38:17.558Z,16.00
2019-02-17T02:39:17.846Z,16.00
2019-02-17T02:40:18.537Z,16.00
2019-02-17T02:41:17.524Z,16.00
2019-02-17T02:42:17.519Z,16.00
2019-02-17T02:43:17.649Z,16.00
2019-02-17T02:44:17.491Z,16.00
2019-02-17T02:45:17.481Z,16.00
2019-02-17T02:46:17.755Z,16.00
2019-02-17T02:47:17.472Z,16.00
2019-02-17T02:48:17.450Z,16.00
2019-02-17T02:49:17.566Z,16.00
2019-02-17T02:50:17.435Z,16.00
2019-02-17T02:51:17.439Z,16.00
2019-02-17T02:52:17.409Z,16.00
2019-02-17T02:53:17.688Z,16.00
2019-02-17T02:54:17.388Z,16.00
2019-02-17T02:55:17.497Z,16.00
2019-02-17T02:56:17.384Z,16.00
2019-02-17T02:57:17.369Z,16.00
2019-02-17T02:58:17.349Z,16.00
2019-02-17T02:59:17.340Z,16.00
2019-02-17T03:01:40.180Z,16.00
2019-02-17T03:02:39.695Z,16.00
2019-02-17T03:03:39.678Z,16.00
2019-02-17T03:04:39.678Z,16.00
2019-02-17T03:05:39.671Z,16.00
2019-02-17T03:06:39.649Z,16.00
2019-02-17T03:07:40.013Z,16.00
2019-02-17T03:08:39.626Z,16.00
2019-02-17T03:09:39.638Z,16.00
2019-02-17T03:10:39.615Z,16.00
2019-02-17T03:11:39.596Z,16.00
2019-02-17T03:12:39.613Z,16.00
2019-02-17T03:13:39.631Z,16.00
2019-02-17T03:14:40.703Z,16.00
2019-02-17T03:15:39.561Z,16.00
2019-02-17T03:16:39.540Z,16.00
2019-02-17T03:17:39.557Z,16.00
2019-02-17T03:18:39.562Z,16.00
2019-02-17T03:19:39.869Z,16.00
2019-02-17T03:20:39.518Z,16.00
2019-02-17T03:21:39.800Z,16.00
2019-02-17T03:22:39.508Z,16.00
2019-02-17T03:23:39.477Z,16.00
2019-02-17T03:24:39.497Z,16.00
2019-02-17T03:25:39.504Z,16.00
2019-02-17T03:26:39.453Z,16.00
2019-02-17T03:27:39.429Z,16.00
2019-02-17T03:28:39.754Z,16.00
2019-02-17T03:29:39.432Z,16.00
2019-02-17T03:30:39.393Z,16.00
2019-02-17T03:31:39.478Z,16.00
2019-02-17T03:32:39.414Z,16.00
2019-02-17T03:33:39.366Z,16.00
2019-02-17T03:34:39.365Z,16.00
2019-02-17T03:35:39.674Z,16.00
2019-02-17T03:36:39.333Z,16.00
2019-02-17T03:37:39.429Z,16.00
2019-02-17T03:38:39.341Z,16.00
2019-02-17T03:39:39.305Z,16.00
2019-02-17T03:40:39.315Z,16.00
2019-02-17T03:41:39.307Z,16.00
2019-02-17T03:42:39.574Z,16.00
2019-02-17T03:43:39.306Z,16.00
2019-02-17T03:44:39.262Z,16.00
2019-02-17T03:45:39.260Z,20.00
2019-02-17T03:46:39.241Z,16.00
2019-02-17T03:47:39.226Z,16.00
2019-02-17T03:48:39.213Z,16.00
2019-02-17T03:49:40.556Z,16.00
2019-02-17T03:50:39.193Z,16.00
2019-02-17T03:51:39.175Z,16.00
2019-02-17T03:52:39.166Z,16.00
2019-02-17T03:53:39.171Z,16.00
2019-02-17T03:54:39.163Z,16.00
2019-02-17T03:55:39.210Z,16.00
2019-02-17T03:56:40.463Z,16.00
2019-02-17T03:57:39.115Z,16.00
2019-02-17T03:58:39.123Z,16.00
2019-02-17T03:59:39.117Z,16.00
2019-02-17T04:00:39.092Z,16.00
2019-02-17T04:01:39.100Z,16.00
2019-02-17T04:02:39.074Z,16.00
2019-02-17T04:03:39.356Z,16.00
2019-02-17T04:04:39.077Z,16.00
2019-02-17T04:05:39.045Z,16.00
2019-02-17T04:06:39.027Z,16.00
2019-02-17T04:07:39.081Z,16.00
2019-02-17T04:08:38.985Z,16.00
2019-02-17T04:09:39.003Z,16.00
2019-02-17T04:10:40.297Z,16.00
2019-02-17T04:11:38.988Z,16.00
2019-02-17T04:12:39.737Z,16.00
2019-02-17T04:13:39.029Z,16.00
2019-02-17T04:14:38.962Z,16.00
2019-02-17T04:15:38.932Z,16.00
2019-02-17T04:16:38.902Z,16.00
2019-02-17T04:17:39.259Z,16.00
2019-02-17T04:18:38.895Z,16.00
2019-02-17T04:19:38.921Z,16.00
2019-02-17T04:20:38.876Z,16.00
2019-02-17T04:21:38.869Z,16.00
2019-02-17T04:22:38.843Z,16.00
2019-02-17T04:23:38.847Z,16.00
2019-02-17T04:24:39.159Z,16.00
2019-02-17T04:25:38.859Z,16.00
2019-02-17T04:26:38.816Z,16.00
2019-02-17T04:27:38.817Z,16.00
2019-02-17T04:28:38.803Z,16.00
2019-02-17T04:29:38.778Z,16.00
2019-02-17T04:30:38.754Z,16.00
2019-02-17T04:31:38.938Z,16.00
2019-02-17T04:32:38.748Z,16.00
2019-02-17T04:33:38.823Z,16.00
2019-02-17T04:34:38.752Z,16.00
2019-02-17T04:35:38.710Z,16.00
2019-02-17T04:36:38.699Z,16.00
2019-02-17T04:37:39.059Z,16.00
2019-02-17T04:38:38.717Z,16.00
2019-02-17T04:39:38.675Z,16.00
2019-02-17T04:40:38.670Z,16.00
2019-02-17T04:41:38.679Z,16.00
2019-02-17T04:42:38.632Z,16.00
2019-02-17T04:43:39.306Z,16.00
2019-02-17T04:44:38.639Z,16.00
2019-02-17T04:45:38.622Z,16.00
2019-02-17T04:46:38.595Z,16.00
2019-02-17T04:47:38.576Z,16.00
2019-02-17T04:48:38.586Z,16.00
2019-02-17T04:49:39.188Z,16.00
2019-02-17T04:50:38.547Z,16.00
2019-02-17T04:51:38.547Z,16.00
2019-02-17T04:52:38.556Z,16.00
2019-02-17T04:53:38.508Z,16.00
2019-02-17T04:54:38.511Z,16.00
2019-02-17T04:55:38.552Z,16.00
2019-02-17T04:56:38.533Z,16.00
2019-02-17T04:57:38.495Z,16.00
2019-02-17T04:58:38.492Z,16.00
2019-02-17T04:59:38.459Z,16.00
2019-02-17T05:00:40.486Z,16.00
2019-02-17T05:01:38.485Z,16.00
2019-02-17T05:02:38.415Z,16.00
2019-02-17T05:03:38.422Z,16.00
2019-02-17T05:04:38.391Z,16.00
2019-02-17T05:05:38.377Z,16.00
2019-02-17T05:06:40.785Z,16.00
2019-02-17T05:07:38.735Z,16.00
2019-02-17T05:08:38.382Z,16.00
2019-02-17T05:09:38.380Z,16.00
2019-02-17T05:10:38.352Z,16.00
2019-02-17T05:11:38.337Z,16.00
2019-02-17T05:12:38.307Z,16.00
2019-02-17T05:13:38.365Z,16.00
2019-02-17T05:14:38.626Z,16.00
2019-02-17T05:15:38.307Z,16.00
2019-02-17T05:16:38.294Z,16.00
2019-02-17T05:17:38.256Z,16.00
2019-02-17T05:18:38.253Z,16.00
2019-02-17T05:19:38.315Z,16.00
2019-02-17T05:20:38.249Z,16.00
2019-02-17T05:21:38.213Z,16.00
2019-02-17T05:22:39.420Z,16.00
2019-02-17T05:23:38.254Z,16.00
2019-02-17T05:24:38.210Z,16.00
2019-02-17T05:25:38.242Z,16.00
2019-02-17T05:26:38.723Z,16.00
2019-02-17T05:27:38.506Z,16.00
2019-02-17T05:28:38.215Z,16.00
2019-02-17T05:29:38.136Z,16.00
2019-02-17T05:30:38.143Z,16.00
2019-02-17T05:31:38.147Z,16.00
2019-02-17T05:32:38.125Z,16.00
2019-02-17T05:33:38.379Z,16.00
2019-02-17T05:34:38.134Z,16.00
2019-02-17T05:35:38.162Z,16.00
2019-02-17T05:36:38.699Z,16.00
2019-02-17T05:37:38.101Z,16.00
2019-02-17T05:38:38.067Z,16.00
2019-02-17T05:39:38.027Z,16.00
2019-02-17T05:40:38.030Z,16.00
2019-02-17T05:41:38.061Z,16.00
2019-02-17T05:42:37.984Z,16.00
2019-02-17T05:43:38.211Z,16.00
2019-02-17T05:44:37.981Z,16.00
2019-02-17T05:45:38.447Z,16.00
2019-02-17T05:46:37.974Z,16.00
2019-02-17T05:47:37.937Z,16.00
2019-02-17T05:48:37.937Z,16.00
2019-02-17T05:49:38.015Z,16.00
2019-02-17T05:50:37.937Z,16.00
2019-02-17T05:51:37.897Z,16.00
2019-02-17T05:52:37.887Z,16.00
2019-02-17T05:53:37.931Z,16.00
2019-02-17T05:54:37.869Z,16.00
2019-02-17T05:55:37.935Z,16.00
2019-02-17T05:56:37.883Z,16.00
2019-02-17T05:57:37.838Z,16.00
2019-02-17T05:58:38.140Z,16.00
2019-02-17T05:59:37.815Z,20.00
2019-02-17T06:00:38.735Z,16.00
2019-02-17T06:01:37.888Z,16.00
2019-02-17T06:02:37.819Z,20.00
2019-02-17T06:03:37.767Z,20.00
2019-02-17T06:04:37.753Z,20.00
2019-02-17T06:05:38.067Z,20.00
2019-02-17T06:06:37.765Z,20.00
2019-02-17T06:07:38.726Z,20.00
2019-02-17T06:08:37.730Z,20.00
2019-02-17T06:09:37.715Z,24.00
2019-02-17T06:10:37.695Z,20.00
2019-02-17T06:11:37.709Z,20.00
2019-02-17T06:12:38.513Z,20.00
2019-02-17T06:13:37.716Z,24.00
2019-02-17T06:14:37.658Z,24.00
2019-02-17T06:15:37.666Z,28.00
2019-02-17T06:16:37.628Z,32.00
2019-02-17T06:17:37.619Z,28.00
2019-02-17T06:18:37.611Z,32.00
2019-02-17T06:19:37.932Z,32.00
2019-02-17T06:20:37.621Z,40.00
2019-02-17T06:21:37.581Z,44.00
2019-02-17T06:22:37.567Z,48.00
2019-02-17T06:23:37.583Z,52.00
2019-02-17T06:24:37.574Z,56.00
2019-02-17T06:25:37.575Z,64.00
2019-02-17T06:26:37.838Z,72.00
2019-02-17T06:27:37.517Z,80.00
2019-02-17T06:28:37.539Z,92.00
2019-02-17T06:29:37.517Z,96.00
2019-02-17T06:30:37.512Z,104.00
2019-02-17T06:31:37.532Z,112.00
2019-02-17T06:32:37.464Z,124.00
2019-02-17T06:33:37.759Z,132.00
2019-02-17T06:34:37.458Z,140.00
2019-02-17T06:35:38.223Z,132.00
2019-02-17T06:36:37.419Z,144.00
2019-02-17T06:37:37.474Z,156.00
2019-02-17T06:38:37.424Z,168.00
2019-02-17T06:39:37.392Z,180.00
2019-02-17T06:40:37.687Z,200.00
2019-02-17T06:41:37.379Z,216.00
2019-02-17T06:42:37.362Z,232.00
2019-02-17T06:43:37.410Z,252.00
2019-02-17T06:44:37.374Z,272.00
2019-02-17T06:45:37.357Z,292.00
2019-02-17T06:46:37.334Z,320.00
2019-02-17T06:47:37.821Z,348.00
2019-02-17T06:48:37.304Z,372.00
2019-02-17T06:49:37.390Z,396.00
2019-02-17T06:50:37.285Z,428.00
2019-02-17T06:51:37.298Z,460.00
2019-02-17T06:52:37.279Z,492.00
2019-02-17T06:53:37.259Z,524.00
2019-02-17T06:54:37.544Z,564.00
2019-02-17T06:55:37.771Z,608.00
2019-02-17T06:56:37.237Z,652.00
2019-02-17T06:57:38.199Z,696.00
2019-02-17T06:58:37.207Z,736.00
2019-02-17T06:59:37.183Z,780.00
2019-02-17T07:00:37.193Z,824.00
2019-02-17T07:01:37.998Z,872.00
2019-02-17T07:02:37.165Z,920.00
2019-02-17T07:03:37.190Z,968.00
2019-02-17T07:04:37.702Z,1020.00
2019-02-17T07:05:38.713Z,1076.00
2019-02-17T07:06:38.138Z,1116.00
2019-02-17T07:07:37.473Z,1168.00
2019-02-17T07:08:37.112Z,1212.00
2019-02-17T07:09:37.123Z,1260.00
2019-02-17T07:10:37.100Z,1308.00
2019-02-17T07:11:37.100Z,1356.00
2019-02-17T07:12:37.069Z,1404.00
2019-02-17T07:13:37.268Z,1452.00
2019-02-17T07:14:38.403Z,1496.00
2019-02-17T07:15:37.047Z,1532.00
2019-02-17T07:16:37.685Z,1560.00
2019-02-17T07:17:36.996Z,1588.00
2019-02-17T07:18:36.992Z,1616.00
2019-02-17T07:19:37.109Z,1640.00
2019-02-17T07:20:36.963Z,1672.00
2019-02-17T07:21:37.288Z,1712.00
2019-02-17T07:22:37.694Z,1760.00
2019-02-17T07:23:36.939Z,1800.00
2019-02-17T07:24:36.939Z,1828.00
2019-02-17T07:25:37.061Z,1860.00
2019-02-17T07:26:37.756Z,1884.00
2019-02-17T07:27:36.910Z,1916.00
2019-02-17T07:28:37.164Z,1944.00
2019-02-17T07:29:36.872Z,1976.00
2019-02-17T07:30:36.871Z,2012.00
2019-02-17T07:31:37.155Z,2048.00
2019-02-17T07:32:36.841Z,2080.00
2019-02-17T07:33:36.843Z,2112.00
2019-02-17T07:34:36.857Z,2148.00
2019-02-17T07:35:37.139Z,2176.00
2019-02-17T07:36:36.810Z,2208.00
2019-02-17T07:37:37.650Z,2240.00
2019-02-17T07:38:36.800Z,2276.00
2019-02-17T07:39:36.802Z,2320.00
2019-02-17T07:40:36.753Z,2352.00
2019-02-17T07:41:36.756Z,2384.00
2019-02-17T07:42:36.739Z,2432.00
2019-02-17T07:43:36.774Z,2504.00
2019-02-17T07:44:36.740Z,2576.00
2019-02-17T07:45:36.709Z,2632.00
2019-02-17T07:46:36.693Z,2692.00
2019-02-17T07:47:36.675Z,2740.00
2019-02-17T07:48:37.193Z,2784.00
2019-02-17T07:49:36.755Z,2840.00
2019-02-17T07:50:36.643Z,2848.00
2019-02-17T07:51:36.652Z,2892.00
2019-02-17T07:52:36.634Z,2932.00
2019-02-17T07:53:36.625Z,2948.00
2019-02-17T07:54:36.914Z,2972.00
2019-02-17T07:55:36.651Z,3000.00
2019-02-17T07:56:36.608Z,2992.00
2019-02-17T07:57:36.577Z,3036.00
2019-02-17T07:58:36.563Z,3076.00
2019-02-17T07:59:36.561Z,3092.00
2019-02-17T08:00:36.870Z,3084.00
2019-02-17T08:01:45.029Z,3100.00
2019-02-17T08:02:37.525Z,3140.00
2019-02-17T08:03:36.544Z,3240.00
2019-02-17T08:04:36.511Z,3628.00
2019-02-17T08:05:36.495Z,4560.00
2019-02-17T08:06:36.824Z,5916.00
2019-02-17T08:07:36.542Z,7972.00
2019-02-17T08:08:36.488Z,7912.00
2019-02-17T08:09:36.455Z,4988.00
2019-02-17T08:10:36.455Z,3588.00
2019-02-17T08:11:36.433Z,3440.00
2019-02-17T08:12:36.434Z,3424.00
2019-02-17T08:13:40.094Z,3444.00
2019-02-17T08:14:36.494Z,3460.00
2019-02-17T08:15:36.402Z,3456.00
2019-02-17T08:16:36.392Z,3432.00
2019-02-17T08:17:36.365Z,3424.00
2019-02-17T08:18:36.375Z,3436.00
2019-02-17T08:19:36.441Z,3448.00
2019-02-17T08:20:36.777Z,3496.00
2019-02-17T08:21:36.340Z,3516.00
2019-02-17T08:22:36.318Z,3544.00
2019-02-17T08:23:36.287Z,3564.00
2019-02-17T08:24:36.294Z,3552.00
2019-02-17T08:25:36.389Z,3552.00
2019-02-17T08:26:36.267Z,3548.00
2019-02-17T08:27:36.574Z,3564.00
2019-02-17T08:28:36.278Z,3572.00
2019-02-17T08:29:36.237Z,3600.00
2019-02-17T08:30:36.256Z,3600.00
2019-02-17T08:31:36.276Z,3588.00
2019-02-17T08:32:36.201Z,3560.00
2019-02-17T08:33:36.195Z,3624.00
2019-02-17T08:34:36.476Z,3652.00
2019-02-17T08:35:36.175Z,3656.00
2019-02-17T08:36:36.166Z,3700.00
2019-02-17T08:37:36.201Z,3748.00
2019-02-17T08:38:36.157Z,3776.00
2019-02-17T08:39:36.145Z,3788.00
2019-02-17T08:40:36.675Z,3828.00
2019-02-17T08:41:36.415Z,3868.00
2019-02-17T08:42:36.115Z,3856.00
2019-02-17T08:43:36.147Z,3868.00
2019-02-17T08:44:36.716Z,3884.00
2019-02-17T08:45:36.671Z,3884.00
2019-02-17T08:46:36.144Z,3884.00
2019-02-17T08:47:36.053Z,3852.00
2019-02-17T08:48:36.984Z,3820.00
2019-02-17T08:49:36.070Z,3820.00
2019-02-17T08:50:36.151Z,3868.00
2019-02-17T08:51:36.660Z,3872.00
2019-02-17T08:52:35.989Z,3868.00
2019-02-17T08:53:35.975Z,3828.00
2019-02-17T08:54:36.692Z,3776.00
2019-02-17T08:55:36.341Z,3712.00
2019-02-17T08:56:36.689Z,3688.00
2019-02-17T08:57:37.981Z,3712.00
2019-02-17T08:58:36.722Z,3692.00
2019-02-17T08:59:35.940Z,3668.00
2019-02-17T09:00:35.931Z,3648.00
2019-02-17T09:01:37.205Z,3696.00
2019-02-17T09:02:36.430Z,3756.00
2019-02-17T09:03:36.053Z,3792.00
2019-02-17T09:04:35.865Z,3764.00
2019-02-17T09:05:43.880Z,3844.00
2019-02-17T09:06:36.849Z,3948.00
2019-02-17T09:07:35.950Z,3952.00
2019-02-17T09:08:35.840Z,3964.00
2019-02-17T09:09:36.177Z,4064.00
2019-02-17T09:10:35.798Z,4212.00
2019-02-17T09:11:35.807Z,4308.00
2019-02-17T09:12:35.769Z,4352.00
2019-02-17T09:13:35.830Z,4404.00
2019-02-17T09:14:35.759Z,4424.00
2019-02-17T09:15:35.832Z,4544.00
2019-02-17T09:16:35.874Z,4496.00
2019-02-17T09:17:35.743Z,4620.00
2019-02-17T09:18:35.890Z,4704.00
2019-02-17T09:19:36.271Z,4740.00
2019-02-17T09:20:35.744Z,4756.00
2019-02-17T09:21:35.760Z,4776.00
2019-02-17T09:22:35.674Z,4840.00
2019-02-17T09:23:35.709Z,4904.00
2019-02-17T09:24:36.197Z,4916.00
2019-02-17T09:25:35.808Z,4876.00
2019-02-17T09:26:35.733Z,4916.00
2019-02-17T09:27:36.068Z,4968.00
2019-02-17T09:28:35.619Z,4872.00
2019-02-17T09:29:35.729Z,5000.00
2019-02-17T09:30:35.629Z,5036.00
2019-02-17T09:31:35.898Z,5080.00
2019-02-17T09:32:35.595Z,5092.00
2019-02-17T09:33:35.635Z,5112.00
2019-02-17T09:34:35.609Z,5148.00
2019-02-17T09:35:35.554Z,5120.00
2019-02-17T09:36:35.530Z,5192.00
2019-02-17T09:37:36.625Z,5204.00
2019-02-17T09:38:35.571Z,5228.00
2019-02-17T09:40:44.879Z,5384.00
2019-02-17T09:41:44.833Z,5508.00
2019-02-17T09:42:44.871Z,5644.00
2019-02-17T09:43:45.676Z,5736.00
2019-02-17T09:44:44.799Z,5800.00
2019-02-17T09:45:44.784Z,5852.00
2019-02-17T09:46:45.140Z,5916.00
2019-02-17T09:47:44.788Z,5948.00
2019-02-17T09:48:44.790Z,5972.00
2019-02-17T09:49:44.741Z,5892.00
2019-02-17T09:50:44.816Z,6172.00
2019-02-17T09:51:44.732Z,6276.00
2019-02-17T09:52:45.456Z,6296.00
2019-02-17T09:53:44.701Z,6372.00
2019-02-17T09:54:44.781Z,6380.00
2019-02-17T09:55:44.675Z,6420.00
2019-02-17T09:56:44.685Z,6128.00
2019-02-17T09:57:44.658Z,6468.00
2019-02-17T09:58:45.917Z,6388.00
2019-02-17T09:59:44.634Z,6172.00
2019-02-17T10:00:44.748Z,6216.00
2019-02-17T10:03:23.778Z,6220.00
2019-02-17T10:04:22.701Z,6100.00
2019-02-17T10:05:22.682Z,6308.00
2019-02-17T10:06:22.676Z,6776.00
2019-02-17T10:07:22.684Z,6884.00
2019-02-17T10:08:22.656Z,6952.00
2019-02-17T10:09:22.989Z,7012.00
2019-02-17T10:10:22.632Z,7012.00
2019-02-17T10:11:22.627Z,7072.00
2019-02-17T10:12:22.611Z,7084.00
2019-02-17T10:13:22.607Z,7032.00
2019-02-17T10:14:22.780Z,6892.00
2019-02-17T10:15:23.271Z,6972.00
2019-02-17T10:16:22.565Z,7144.00
2019-02-17T10:17:22.554Z,7112.00
2019-02-17T10:18:22.558Z,7128.00
2019-02-17T10:19:22.539Z,7192.00
2019-02-17T10:20:24.435Z,7260.00
2019-02-17T10:21:23.863Z,7352.00
2019-02-17T10:22:22.755Z,7472.00
2019-02-17T10:23:22.582Z,7548.00
2019-02-17T10:24:22.500Z,7640.00
2019-02-17T10:25:22.481Z,7732.00
2019-02-17T10:26:22.464Z,7704.00
2019-02-17T10:27:22.499Z,7772.00
2019-02-17T10:28:22.448Z,7676.00
2019-02-17T10:29:22.426Z,7520.00
2019-02-17T10:30:22.419Z,7496.00
2019-02-17T10:31:22.414Z,7792.00
2019-02-17T10:32:23.284Z,7996.00
2019-02-17T10:33:22.427Z,7996.00
2019-02-17T10:34:22.384Z,8132.00
2019-02-17T10:35:22.367Z,8132.00
2019-02-17T10:36:22.383Z,8128.00
2019-02-17T10:37:22.360Z,8084.00
2019-02-17T10:38:22.347Z,8064.00
2019-02-17T10:39:23.016Z,7876.00
2019-02-17T10:40:23.323Z,7844.00
2019-02-17T10:41:22.304Z,7840.00
2019-02-17T10:42:22.291Z,7908.00
2019-02-17T10:43:22.285Z,7852.00
2019-02-17T10:44:22.271Z,7992.00
2019-02-17T10:45:22.580Z,8012.00
2019-02-17T10:46:22.738Z,7936.00
2019-02-17T10:47:22.262Z,7852.00
2019-02-17T10:48:22.229Z,7852.00
2019-02-17T10:49:22.251Z,7952.00
2019-02-17T10:50:22.208Z,7888.00
2019-02-17T10:51:22.265Z,7508.00
2019-02-17T10:52:22.191Z,7556.00
2019-02-17T10:53:23.074Z,7548.00
2019-02-17T10:54:23.145Z,7500.00
2019-02-17T10:55:22.154Z,7764.00
2019-02-17T10:56:22.143Z,8152.00
2019-02-17T10:57:22.203Z,8064.00
2019-02-17T10:58:22.125Z,8200.00
2019-02-17T10:59:22.119Z,8360.00
2019-02-17T11:00:22.538Z,8460.00
2019-02-17T11:01:22.154Z,8520.00
2019-02-17T11:02:22.080Z,8544.00
2019-02-17T11:03:22.133Z,8484.00
2019-02-17T11:04:22.186Z,8592.00
2019-02-17T11:05:22.048Z,8668.00
2019-02-17T11:06:22.098Z,8764.00
2019-02-17T11:07:23.156Z,8932.00
2019-02-17T11:08:22.121Z,8984.00
2019-02-17T11:09:23.377Z,8684.00
2019-02-17T11:10:22.838Z,8692.00
2019-02-17T11:11:22.047Z,8716.00
2019-02-17T11:12:23.640Z,8476.00
2019-02-17T11:13:22.040Z,8620.00
2019-02-17T11:14:22.314Z,8632.00
2019-02-17T11:15:22.827Z,8440.00
2019-02-17T11:16:21.939Z,8588.00
2019-02-17T11:17:21.922Z,8880.00
2019-02-17T11:18:22.782Z,8916.00
2019-02-17T11:19:21.905Z,9128.00
2019-02-17T11:20:21.973Z,9044.00
2019-02-17T11:21:22.342Z,9132.00
2019-02-17T11:22:23.361Z,9096.00
2019-02-17T11:23:21.859Z,8524.00
2019-02-17T11:24:21.875Z,8988.00
2019-02-17T11:25:21.841Z,8928.00
2019-02-17T11:26:21.925Z,9232.00
2019-02-17T11:27:21.855Z,9360.00
2019-02-17T11:28:22.326Z,9232.00
2019-02-17T11:29:21.838Z,9592.00
2019-02-17T11:30:21.856Z,10156.00
2019-02-17T11:31:21.792Z,10480.00
2019-02-17T11:32:21.863Z,10220.00
2019-02-17T11:33:21.847Z,10672.00
2019-02-17T11:34:21.792Z,10728.00
2019-02-17T11:35:22.042Z,10896.00
2019-02-17T11:36:21.758Z,11108.00
2019-02-17T11:37:21.711Z,11276.00
2019-02-17T11:38:21.715Z,11432.00
2019-02-17T11:39:21.732Z,11664.00
2019-02-17T11:40:21.679Z,12248.00
2019-02-17T11:41:21.671Z,12768.00
2019-02-17T11:42:21.944Z,15212.00
2019-02-17T11:43:21.656Z,33440.00
2019-02-17T11:44:21.642Z,59616.00
2019-02-17T11:45:21.669Z,83776.00
2019-02-17T11:46:21.740Z,90912.00
2019-02-17T11:47:21.604Z,90240.00
2019-02-17T11:48:21.608Z,79648.00
2019-02-17T11:49:22.811Z,76928.00
2019-02-17T11:50:21.575Z,70720.00
2019-02-17T11:51:21.703Z,74720.00
2019-02-17T11:52:21.610Z,91520.00
2019-02-17T11:53:21.541Z,94912.00
2019-02-17T11:54:21.535Z,95456.00
2019-02-17T11:55:22.888Z,94208.00
2019-02-17T11:56:22.721Z,91616.00
2019-02-17T11:57:21.645Z,92448.00
2019-02-17T11:58:22.238Z,89504.00
2019-02-17T11:59:21.686Z,87584.00
2019-02-17T12:00:21.640Z,87232.00
2019-02-17T12:01:21.463Z,89088.00
2019-02-17T12:02:24.830Z,88800.00
2019-02-17T12:03:21.491Z,87808.00
2019-02-17T12:04:21.463Z,88160.00
2019-02-17T12:05:21.420Z,84736.00
2019-02-17T12:06:21.426Z,80096.00
2019-02-17T12:07:21.443Z,73344.00
2019-02-17T12:08:21.404Z,79328.00
2019-02-17T12:09:21.802Z,89856.00
2019-02-17T12:10:21.388Z,78752.00
2019-02-17T12:11:21.364Z,87136.00
2019-02-17T12:12:21.346Z,89632.00
2019-02-17T12:13:21.355Z,92256.00
2019-02-17T12:14:21.337Z,76832.00
2019-02-17T12:15:21.366Z,95840.00
2019-02-17T12:16:21.339Z,100384.00
2019-02-17T12:17:21.292Z,96288.00
2019-02-17T12:18:21.303Z,95392.00
2019-02-17T12:19:21.283Z,91520.00
2019-02-17T12:20:21.264Z,90720.00
2019-02-17T12:21:21.801Z,91552.00
2019-02-17T12:22:21.829Z,91392.00
2019-02-17T12:23:21.236Z,87392.00
2019-02-17T12:24:21.237Z,87424.00
2019-02-17T12:25:21.349Z,88032.00
2019-02-17T12:26:21.205Z,88064.00
2019-02-17T12:27:21.279Z,87840.00
2019-02-17T12:28:21.558Z,88192.00
2019-02-17T12:29:21.298Z,87968.00
2019-02-17T12:30:21.209Z,86944.00
2019-02-17T12:31:21.431Z,80480.00
2019-02-17T12:32:21.328Z,84672.00